Борисполь

Карта отелей и гостиниц, располагающихся рядом с аэропортом Борисполь :



Борисполь
Киев
Киевская область 50° 20' 28.2588" N, 30° 53' 41.5212" E
Код аэродрома ИКАО: 
UKBB
Код аэродрома RU: 
УКББ
Координаты: 
N50.34118° E030.89487°
Превышение над уровнем моря : 
131
Основная полоса: 
18L/36R
Курс магнитный: 
356/176
Длина основной ВПП: 
4000
Ширина основной ВПП: 
60
Покрытие основной ВПП: 
Твёрдое (асфальтобетон)
Тип: 
Аэродром
Освещение ВПП: 
Постоянное
Класс аэродрома: 
Международный
Статус: 
Действующий
Принадлежность: 
ГА
Сайт: 
www.kbp.kiev.ua
E-mail аэродрома: 
lev@airport-borispol.kiev.ua
Страна: 
Украина
Регион: 
Киевская область
Город: 
Киев
Погода: 

Авиационная погода в Борисполе

Регион: 
Погода METAR: 
UKBB 311000Z 34006MPS 9999 FEW024CB BKN032 02/M06 Q1019 R36R/290055 NOSIG
Время наблюдения: 
2020-03-31T10:00:00Z
Температура C: 
2.0
Точка росы: 
-6.0
Направление ветра: 
340
Скорость ветра: 
12
Метеорологическая видимость: 
6.21
Условия полета: 
VFR
Аэропорт подробнее: 

Найти трансфер

С помощью этой формы Вы можете найти трансфер из аэропорта Борисполь в город, аэропорт или вокзал:

Карта места

Javascript is required to view this map.

Погода в аэропортах:

Авиационная погода в Полярном

Регион: 
Погода METAR: 
UERP 311000Z 28006G12MPS 6000 -SHSN DRSN BKN018CB OVC100 M10/M12 Q0992 R35/490139 NOSIG RMK QFE700
Время наблюдения: 
2020-03-31T10:00:00Z
Температура C: 
-10.0
Точка росы: 
-12.0
Направление ветра: 
280
Скорость ветра: 
12
Метеорологическая видимость: 
3.73
Явления погоды: 
-SHSN DRSN
Условия полета: 
MVFR
Аэропорт подробнее: 

Авиационная погода в Москве - Остафьево

Регион: 
Погода METAR: 
UUMO 311000Z 36007MPS 0900 R08/0900 +SHSN BKN008 OVC019CB M04/M05 Q1011 R08/550242 NOSIG RMK QFE744/0992
Время наблюдения: 
2020-03-31T10:00:00Z
Температура C: 
-4.0
Точка росы: 
-5.0
Направление ветра: 
360
Скорость ветра: 
14
Метеорологическая видимость: 
0.56
Явления погоды: 
+SHSN
Условия полета: 
LIFR
Аэропорт подробнее: 

Авиационная погода в Вардё

Регион: 
Погода METAR: 
ENSS 230220Z 27030KT 9999 DRSN NSC M02/M04 Q1010 RMK WIND 500FT 27043KT
Время наблюдения: 
2020-03-23T02:20:00Z
Температура C: 
-2.0
Точка росы: 
-4.0
Направление ветра: 
270
Скорость ветра: 
30
Метеорологическая видимость: 
6.21
Явления погоды: 
DRSN
Условия полета: 
VFR

Авиационная погода в Москва - Шереметьево

Регион: 
Погода METAR: 
UUEE 311000Z 01006MPS 330V050 2200 -SN OVC017 M04/M05 Q1012 R06R/590245 R06L/550240 TEMPO 0700 +SHSN BKN011CB
Время наблюдения: 
2020-03-31T10:00:00Z
Температура C: 
-4.0
Точка росы: 
-5.0
Направление ветра: 
10
Скорость ветра: 
12
Метеорологическая видимость: 
1.37
Явления погоды: 
-SN
Условия полета: 
IFR
Аэропорт подробнее: